createdAt,value
2023-02-11T00:00:28.738Z,6.88
2023-02-11T00:02:55.326Z,8.40
2023-02-11T00:05:24.415Z,7.22
2023-02-11T00:07:50.973Z,8.02
2023-02-11T00:10:17.579Z,7.72
2023-02-11T00:12:44.202Z,7.68
2023-02-11T00:15:29.559Z,7.82
2023-02-11T00:17:56.171Z,7.75
2023-02-11T00:20:22.754Z,7.20
2023-02-11T00:22:49.342Z,7.68
2023-02-11T00:25:16.042Z,7.80
2023-02-11T00:27:42.663Z,7.95
2023-02-11T00:30:09.280Z,8.10
2023-02-11T00:32:35.949Z,6.90
2023-02-11T00:35:03.757Z,8.18
2023-02-11T00:37:31.995Z,7.18
2023-02-11T00:39:58.580Z,7.85
2023-02-11T00:42:25.153Z,8.25
2023-02-11T00:44:52.966Z,7.57
2023-02-11T00:47:19.609Z,7.70
2023-02-11T00:49:46.190Z,6.68
2023-02-11T00:52:12.911Z,7.18
2023-02-11T00:54:41.852Z,7.90
2023-02-11T00:57:08.454Z,7.10
2023-02-11T00:59:35.083Z,6.40
2023-02-11T01:02:01.663Z,7.63
2023-02-11T01:04:28.332Z,7.40
2023-02-11T01:06:54.938Z,9.10
2023-02-11T01:09:21.615Z,7.10
2023-02-11T01:11:48.198Z,7.78
2023-02-11T01:14:14.796Z,8.45
2023-02-11T01:16:42.571Z,8.82
2023-02-11T01:19:09.844Z,8.43
2023-02-11T01:21:36.707Z,7.50
2023-02-11T01:24:03.441Z,9.20
2023-02-11T01:26:48.905Z,8.18
2023-02-11T01:29:15.531Z,8.52
2023-02-11T01:31:42.149Z,8.18
2023-02-11T01:34:08.800Z,9.18
2023-02-11T01:36:37.260Z,8.27
2023-02-11T01:39:03.865Z,10.80
2023-02-11T01:41:30.471Z,8.80
2023-02-11T01:43:57.500Z,9.93
2023-02-11T01:46:24.446Z,8.93
2023-02-11T01:48:51.630Z,10.07
2023-02-11T01:51:20.736Z,9.68
2023-02-11T01:54:06.194Z,9.20
2023-02-11T01:56:51.888Z,9.43
2023-02-11T01:59:18.486Z,9.13
2023-02-11T02:01:45.086Z,9.32
2023-02-11T02:04:11.771Z,10.45
2023-02-11T02:06:57.392Z,9.93
2023-02-11T02:09:24.065Z,10.38
2023-02-11T02:11:50.661Z,10.20
2023-02-11T02:14:17.306Z,9.10
2023-02-11T02:16:45.162Z,9.38
2023-02-11T02:19:11.870Z,8.75
2023-02-11T02:21:38.448Z,10.48
2023-02-11T02:24:05.029Z,9.70
2023-02-11T02:26:32.793Z,10.05
2023-02-11T02:28:59.430Z,10.23
2023-02-11T02:31:26.044Z,9.70
2023-02-11T02:33:52.708Z,11.25
2023-02-11T02:36:20.489Z,9.38
2023-02-11T02:38:48.463Z,9.70
2023-02-11T02:41:15.589Z,9.80
2023-02-11T02:43:42.189Z,9.30
2023-02-11T02:46:10.102Z,9.43
2023-02-11T02:48:36.715Z,9.70
2023-02-11T02:51:03.275Z,9.02
2023-02-11T02:53:29.882Z,9.05
2023-02-11T02:55:57.698Z,9.27
2023-02-11T02:58:24.325Z,9.77
2023-02-11T03:00:50.976Z,11.20
2023-02-11T03:03:17.572Z,9.95
2023-02-11T03:05:44.500Z,10.18
2023-02-11T03:08:11.110Z,10.48
2023-02-11T03:10:37.737Z,10.55
2023-02-11T03:13:04.413Z,9.70
2023-02-11T03:15:32.121Z,10.02
2023-02-11T03:17:58.781Z,8.68
2023-02-11T03:20:25.363Z,11.35
2023-02-11T03:22:51.990Z,10.52
2023-02-11T03:25:19.809Z,10.40
2023-02-11T03:27:46.374Z,10.57
2023-02-11T03:30:12.956Z,10.55
2023-02-11T03:32:39.542Z,9.82
2023-02-11T03:35:06.248Z,10.82
2023-02-11T03:37:32.817Z,11.23
2023-02-11T03:39:59.389Z,10.75
2023-02-11T03:42:26.034Z,10.10
2023-02-11T03:44:52.854Z,9.90
2023-02-11T03:47:19.464Z,10.15
2023-02-11T03:49:46.177Z,10.10
2023-02-11T03:52:12.835Z,10.57
2023-02-11T03:54:40.688Z,9.48
2023-02-11T03:57:07.516Z,9.82
2023-02-11T03:59:34.102Z,9.55
2023-02-11T04:02:00.711Z,10.82
2023-02-11T04:04:27.370Z,11.15
2023-02-11T04:06:53.958Z,10.40
2023-02-11T04:09:20.582Z,11.68
2023-02-11T04:11:47.223Z,10.43
2023-02-11T04:14:13.812Z,11.55
2023-02-11T04:16:40.609Z,9.95
2023-02-11T04:19:07.277Z,10.07
2023-02-11T04:21:33.884Z,10.63
2023-02-11T04:24:00.452Z,10.85
2023-02-11T04:26:27.422Z,10.80
2023-02-11T04:28:53.992Z,9.65
2023-02-11T04:31:20.765Z,10.23
2023-02-11T04:33:47.461Z,9.88
2023-02-11T04:36:32.758Z,9.35
2023-02-11T04:38:59.346Z,10.48
2023-02-11T04:41:25.944Z,11.10
2023-02-11T04:43:52.552Z,9.55
2023-02-11T04:46:38.265Z,10.25
2023-02-11T04:49:05.494Z,9.20
2023-02-11T04:51:32.071Z,10.07
2023-02-11T04:53:58.671Z,10.60
2023-02-11T04:56:27.522Z,9.77
2023-02-11T04:58:54.160Z,8.27
2023-02-11T05:01:20.793Z,10.38
2023-02-11T05:03:47.427Z,8.60
2023-02-11T05:06:15.253Z,8.55
2023-02-11T05:08:41.874Z,9.30
2023-02-11T05:11:08.452Z,8.65
2023-02-11T05:13:35.126Z,7.97
2023-02-11T05:16:02.949Z,8.02
2023-02-11T05:18:29.578Z,8.90
2023-02-11T05:20:56.197Z,7.90
2023-02-11T05:23:22.868Z,8.63
2023-02-11T05:25:50.088Z,7.90
2023-02-11T05:28:16.998Z,7.38
2023-02-11T05:30:43.675Z,9.45
2023-02-11T05:33:10.314Z,7.35
2023-02-11T05:35:37.017Z,8.02
2023-02-11T05:38:03.661Z,8.20
2023-02-11T05:40:30.225Z,6.78
2023-02-11T05:42:56.814Z,8.07
2023-02-11T05:45:23.474Z,7.78
2023-02-11T05:47:50.105Z,7.55
2023-02-11T05:50:16.726Z,7.57
2023-02-11T05:52:43.364Z,6.88
2023-02-11T05:55:10.252Z,7.13
2023-02-11T05:57:36.875Z,5.90
2023-02-11T06:00:03.482Z,6.72
2023-02-11T06:02:39.045Z,7.32
2023-02-11T06:05:25.856Z,5.78
2023-02-11T06:07:52.568Z,6.30
2023-02-11T06:10:20.313Z,6.55
2023-02-11T06:12:46.935Z,6.18
2023-02-11T06:15:14.818Z,6.80
2023-02-11T06:17:41.458Z,6.53
2023-02-11T06:20:08.522Z,7.90
2023-02-11T06:22:35.358Z,7.15
2023-02-11T06:25:03.272Z,6.63
2023-02-11T06:27:29.968Z,5.85
2023-02-11T06:29:56.596Z,6.45
2023-02-11T06:32:43.331Z,6.03
2023-02-11T06:35:12.045Z,6.43
2023-02-11T06:37:39.062Z,5.82
2023-02-11T06:40:05.715Z,5.50
2023-02-11T06:42:32.390Z,6.38
2023-02-11T06:45:01.279Z,5.50
2023-02-11T06:47:27.899Z,5.80
2023-02-11T06:49:54.515Z,6.25
2023-02-11T06:52:21.108Z,5.47
2023-02-11T06:54:47.964Z,5.95
2023-02-11T06:57:14.586Z,6.38
2023-02-11T06:59:41.366Z,5.38
2023-02-11T07:02:08.034Z,6.13
2023-02-11T07:04:36.866Z,5.43
2023-02-11T07:07:03.444Z,4.90
2023-02-11T07:12:17.579Z,5.65
2023-02-11T07:17:40.371Z,5.45
2023-02-11T07:20:07.063Z,4.85
2023-02-11T07:22:33.674Z,4.85
2023-02-11T07:25:02.483Z,5.38
2023-02-11T07:27:29.095Z,5.40
2023-02-11T07:29:55.673Z,4.85
2023-02-11T07:32:22.297Z,5.32
2023-02-11T07:34:50.307Z,5.30
2023-02-11T07:37:17.001Z,6.15
2023-02-11T07:39:43.585Z,4.65
2023-02-11T07:42:10.225Z,4.78
2023-02-11T07:44:37.055Z,4.85
2023-02-11T07:47:03.757Z,4.88
2023-02-11T07:49:30.384Z,4.45
2023-02-11T07:51:56.982Z,4.72
2023-02-11T07:54:23.639Z,6.35
2023-02-11T07:56:50.287Z,4.25
2023-02-11T07:59:16.997Z,4.45
2023-02-11T08:01:43.686Z,4.25
2023-02-11T08:04:10.322Z,3.83
2023-02-11T08:06:57.912Z,3.33
2023-02-11T08:09:25.697Z,4.00
2023-02-11T08:11:52.273Z,3.95
2023-02-11T08:14:20.418Z,3.22
2023-02-11T08:17:05.792Z,4.13
2023-02-11T08:19:35.173Z,3.88
2023-02-11T08:22:01.962Z,4.13
2023-02-11T08:24:28.602Z,4.05
2023-02-11T08:26:55.222Z,3.13
2023-02-11T08:29:22.189Z,3.00
2023-02-11T08:31:48.861Z,3.95
2023-02-11T08:34:18.256Z,3.38
2023-02-11T08:36:47.022Z,3.42
2023-02-11T08:39:19.731Z,3.63
2023-02-11T08:41:46.847Z,3.05
2023-02-11T08:44:13.476Z,3.70
2023-02-11T08:46:58.913Z,3.00
2023-02-11T08:49:25.580Z,3.45
2023-02-11T08:51:52.444Z,2.15
2023-02-11T08:54:19.416Z,2.47
2023-02-11T08:56:48.196Z,2.30
2023-02-11T08:59:15.707Z,3.00
2023-02-11T09:01:44.100Z,2.55
2023-02-11T09:04:10.906Z,2.55
2023-02-11T09:06:38.694Z,2.38
2023-02-11T09:09:05.440Z,2.35
2023-02-11T09:11:32.033Z,2.45
2023-02-11T09:13:58.982Z,2.58
2023-02-11T09:16:28.011Z,2.95
2023-02-11T09:18:54.752Z,2.47
2023-02-11T09:21:21.464Z,2.20
2023-02-11T09:23:48.315Z,2.90
2023-02-11T09:26:17.080Z,2.40
2023-02-11T09:28:43.708Z,2.23
2023-02-11T09:31:10.436Z,2.10
2023-02-11T09:33:37.079Z,2.40
2023-02-11T09:36:24.400Z,2.30
2023-02-11T09:38:51.019Z,2.40
2023-02-11T09:41:17.604Z,2.20
2023-02-11T09:43:44.262Z,2.67
2023-02-11T09:46:29.968Z,3.55
2023-02-11T09:48:56.658Z,2.38
2023-02-11T09:51:24.224Z,2.33
2023-02-11T09:53:51.086Z,2.42
2023-02-11T09:56:18.868Z,1.95
2023-02-11T09:58:45.602Z,2.63
2023-02-11T10:01:12.386Z,2.10
2023-02-11T10:03:39.054Z,2.45
2023-02-11T10:06:24.625Z,2.78
2023-02-11T10:08:51.266Z,1.98
2023-02-11T10:11:31.009Z,2.15
2023-02-11T10:13:58.454Z,2.30
2023-02-11T10:16:46.064Z,2.08
2023-02-11T10:19:13.955Z,2.20
2023-02-11T10:21:43.691Z,2.45
2023-02-11T10:26:38.227Z,2.08
2023-02-11T10:29:04.867Z,2.10
2023-02-11T10:31:31.548Z,2.17
2023-02-11T10:33:58.219Z,1.88
2023-02-11T10:39:28.222Z,2.05
2023-02-11T10:41:54.837Z,1.92
2023-02-11T10:44:21.474Z,1.92
2023-02-11T10:46:48.261Z,2.28
2023-02-11T10:49:14.906Z,3.08
2023-02-11T10:51:41.514Z,1.85
2023-02-11T10:54:08.337Z,1.95
2023-02-11T10:56:40.159Z,2.50
2023-02-11T10:59:06.794Z,2.13
2023-02-11T11:01:33.417Z,2.35
2023-02-11T11:04:00.373Z,2.30
2023-02-11T11:06:26.975Z,2.13
2023-02-11T11:08:53.591Z,2.20
2023-02-11T11:11:20.170Z,2.15
2023-02-11T11:13:46.814Z,2.25
2023-02-11T11:16:13.488Z,2.40
2023-02-11T11:18:40.224Z,2.38
2023-02-11T11:21:07.557Z,2.00
2023-02-11T11:23:34.164Z,2.28
2023-02-11T11:26:00.819Z,2.38
2023-02-11T11:28:27.520Z,3.13
2023-02-11T11:30:54.520Z,3.67
2023-02-11T11:33:21.392Z,2.30
2023-02-11T11:35:47.971Z,2.50
2023-02-11T11:38:14.596Z,2.35
2023-02-11T11:40:41.195Z,2.30
2023-02-11T11:43:07.821Z,2.50
2023-02-11T11:45:34.423Z,2.35
2023-02-11T11:48:01.060Z,2.15
2023-02-11T11:50:27.814Z,2.25
2023-02-11T11:52:54.404Z,2.20
2023-02-11T11:55:20.998Z,2.35
2023-02-11T11:57:47.598Z,1.98
2023-02-11T12:00:14.956Z,1.92
2023-02-11T12:02:41.702Z,1.83
2023-02-11T12:05:08.422Z,1.73
2023-02-11T12:07:35.121Z,2.20
2023-02-11T12:10:01.726Z,2.03
2023-02-11T12:12:32.125Z,2.03
2023-02-11T12:14:58.837Z,2.00
2023-02-11T12:17:25.414Z,2.17
2023-02-11T12:19:52.477Z,2.33
2023-02-11T12:22:19.194Z,2.40
2023-02-11T12:24:45.896Z,2.17
2023-02-11T12:27:13.537Z,2.67
2023-02-11T12:29:40.291Z,2.10
2023-02-11T12:32:07.913Z,2.30
2023-02-11T12:34:34.599Z,2.30
2023-02-11T12:37:02.836Z,2.85
2023-02-11T12:39:29.667Z,2.75
2023-02-11T12:42:15.225Z,2.28
2023-02-11T12:44:41.881Z,2.10
2023-02-11T12:47:08.539Z,2.45
2023-02-11T12:49:35.184Z,2.30
2023-02-11T12:52:01.904Z,2.17
2023-02-11T12:54:28.603Z,2.30
2023-02-11T12:56:55.200Z,2.30
2023-02-11T12:59:21.805Z,3.75
2023-02-11T13:01:48.378Z,2.85
2023-02-11T13:04:15.001Z,2.03
2023-02-11T13:06:41.637Z,2.05
2023-02-11T13:09:08.310Z,2.15
2023-02-11T13:11:34.998Z,2.60
2023-02-11T13:14:01.625Z,2.70
2023-02-11T13:16:29.508Z,3.13
2023-02-11T13:18:56.266Z,3.15
2023-02-11T13:21:22.869Z,2.53
2023-02-11T13:23:49.500Z,2.30
2023-02-11T13:26:16.102Z,2.60
2023-02-11T13:28:42.760Z,2.90
2023-02-11T13:31:09.687Z,3.42
2023-02-11T13:33:36.428Z,3.03
2023-02-11T13:36:04.739Z,2.45
2023-02-11T13:38:31.570Z,2.53
2023-02-11T13:40:58.172Z,2.60
2023-02-11T13:43:24.799Z,2.42
2023-02-11T13:45:51.481Z,2.40
2023-02-11T13:48:18.354Z,2.80
2023-02-11T13:50:46.592Z,2.70
2023-02-11T13:53:15.920Z,2.50
2023-02-11T13:55:42.662Z,2.63
2023-02-11T13:58:09.297Z,2.53
2023-02-11T14:00:36.341Z,2.42
2023-02-11T14:03:21.651Z,2.40
2023-02-11T14:06:07.025Z,2.50
2023-02-11T14:08:52.566Z,2.72
2023-02-11T14:11:19.177Z,2.65
2023-02-11T14:13:45.740Z,2.53
2023-02-11T14:16:20.320Z,2.58
2023-02-11T14:21:18.714Z,2.40
2023-02-11T14:23:45.458Z,2.55
2023-02-11T14:26:12.082Z,2.65
2023-02-11T14:28:38.837Z,2.33
2023-02-11T14:31:05.560Z,2.80
2023-02-11T14:33:32.261Z,2.83
2023-02-11T14:35:58.834Z,3.38
2023-02-11T14:38:25.434Z,3.10
2023-02-11T14:40:52.300Z,3.40
2023-02-11T14:43:19.330Z,3.13
2023-02-11T14:45:46.133Z,2.95
2023-02-11T14:48:12.783Z,2.80
2023-02-11T14:50:39.368Z,3.42
2023-02-11T14:53:06.270Z,3.35
2023-02-11T14:55:33.332Z,3.08
2023-02-11T14:57:59.973Z,3.08
2023-02-11T15:00:26.659Z,4.07
2023-02-11T15:02:53.706Z,3.20
2023-02-11T15:05:20.369Z,4.30
2023-02-11T15:07:47.006Z,3.90
2023-02-11T15:10:13.618Z,3.55
2023-02-11T15:12:40.273Z,3.08
2023-02-11T15:15:06.882Z,4.18
2023-02-11T15:17:33.523Z,3.60
2023-02-11T15:20:00.137Z,4.10
2023-02-11T15:22:26.969Z,3.92
2023-02-11T15:24:53.554Z,3.63
2023-02-11T15:27:21.092Z,4.30
2023-02-11T15:29:49.194Z,3.47
2023-02-11T15:32:16.795Z,3.72
2023-02-11T15:34:43.520Z,4.43
2023-02-11T15:37:10.165Z,3.80
2023-02-11T15:39:36.766Z,3.58
2023-02-11T15:42:03.350Z,3.90
2023-02-11T15:44:30.133Z,3.85
2023-02-11T15:46:56.844Z,4.18
2023-02-11T15:49:23.537Z,4.28
2023-02-11T15:51:50.683Z,3.72
2023-02-11T15:54:17.279Z,3.67
2023-02-11T15:56:44.194Z,4.30
2023-02-11T15:59:12.893Z,4.45
2023-02-11T16:01:40.089Z,3.90
2023-02-11T16:04:06.907Z,4.10
2023-02-11T16:06:33.572Z,3.78
2023-02-11T16:09:00.216Z,4.00
2023-02-11T16:11:26.841Z,4.25
2023-02-11T16:13:53.539Z,5.50
2023-02-11T16:16:20.295Z,4.00
2023-02-11T16:18:52.024Z,4.53
2023-02-11T16:21:22.118Z,4.53
2023-02-11T16:23:48.695Z,3.97
2023-02-11T16:26:15.270Z,4.13
2023-02-11T16:28:41.901Z,4.03
2023-02-11T16:31:09.660Z,5.03
2023-02-11T16:33:36.347Z,4.80
2023-02-11T16:36:03.985Z,4.40
2023-02-11T16:38:30.600Z,4.25
2023-02-11T16:40:57.215Z,4.40
2023-02-11T16:43:23.887Z,4.20
2023-02-11T16:45:50.814Z,4.93
2023-02-11T16:48:18.184Z,5.28
2023-02-11T16:50:45.296Z,5.07
2023-02-11T16:53:12.123Z,5.10
2023-02-11T16:55:38.914Z,4.82
2023-02-11T16:58:06.489Z,5.45
2023-02-11T17:00:33.113Z,5.20
2023-02-11T17:02:59.741Z,5.75
2023-02-11T17:05:27.241Z,6.28
2023-02-11T17:07:53.850Z,9.40
2023-02-11T17:10:20.521Z,10.98
2023-02-11T17:12:47.935Z,9.75
2023-02-11T17:15:14.543Z,8.75
2023-02-11T17:17:41.116Z,7.72
2023-02-11T17:20:08.610Z,7.15
2023-02-11T17:22:35.313Z,7.95
2023-02-11T17:25:01.927Z,5.45
2023-02-11T17:27:28.554Z,7.20
2023-02-11T17:29:55.140Z,5.95
2023-02-11T17:32:21.884Z,7.22
2023-02-11T17:34:48.509Z,7.53
2023-02-11T17:37:15.116Z,8.63
2023-02-11T17:39:41.827Z,6.82
2023-02-11T17:42:08.820Z,6.90
2023-02-11T17:44:35.689Z,6.32
2023-02-11T17:47:02.282Z,6.43
2023-02-11T17:49:29.025Z,4.90
2023-02-11T17:51:55.668Z,5.20
2023-02-11T17:54:22.461Z,4.50
2023-02-11T17:56:50.795Z,4.45
2023-02-11T17:59:17.658Z,4.35
2023-02-11T18:01:44.310Z,3.40
2023-02-11T18:04:10.966Z,5.05
2023-02-11T18:06:37.678Z,5.40
2023-02-11T18:09:04.437Z,5.00
2023-02-11T18:11:31.123Z,4.72
2023-02-11T18:13:57.712Z,5.10
2023-02-11T18:16:25.130Z,4.80
2023-02-11T18:18:51.765Z,6.07
2023-02-11T18:21:18.501Z,5.40
2023-02-11T18:23:45.117Z,5.85
2023-02-11T18:26:12.008Z,6.68
2023-02-11T18:28:38.648Z,5.72
2023-02-11T18:31:05.306Z,6.20
2023-02-11T18:33:32.038Z,6.45
2023-02-11T18:35:58.769Z,7.63
2023-02-11T18:38:25.353Z,6.57
2023-02-11T18:40:52.422Z,5.97
2023-02-11T18:43:19.015Z,7.30
2023-02-11T18:45:45.923Z,6.85
2023-02-11T18:48:12.601Z,6.97
2023-02-11T18:50:39.217Z,6.90
2023-02-11T18:53:05.818Z,6.95
2023-02-11T18:55:32.552Z,6.93
2023-02-11T18:57:59.183Z,10.38
2023-02-11T19:00:25.945Z,9.60
2023-02-11T19:02:53.149Z,9.20
2023-02-11T19:05:19.939Z,9.93
2023-02-11T19:07:46.589Z,10.65
2023-02-11T19:10:13.642Z,10.13
2023-02-11T19:12:41.988Z,9.27
2023-02-11T19:15:08.856Z,7.45
2023-02-11T19:17:35.496Z,7.40
2023-02-11T19:20:02.187Z,7.53
2023-02-11T19:22:28.968Z,7.55
2023-02-11T19:24:56.820Z,6.40
2023-02-11T19:27:23.510Z,6.55
2023-02-11T19:29:50.174Z,16.02
2023-02-11T19:32:16.818Z,11.90
2023-02-11T19:35:03.197Z,11.85
2023-02-11T19:37:29.815Z,11.50
2023-02-11T19:39:56.417Z,10.77
2023-02-11T19:42:25.258Z,8.18
2023-02-11T19:44:54.388Z,7.93
2023-02-11T19:47:27.517Z,12.45
2023-02-11T19:49:54.183Z,12.25
2023-02-11T19:52:20.754Z,9.88
2023-02-11T19:54:47.707Z,10.15
2023-02-11T19:57:14.338Z,10.40
2023-02-11T19:59:40.948Z,8.07
2023-02-11T20:02:08.015Z,9.77
2023-02-11T20:04:34.671Z,8.95
2023-02-11T20:07:01.343Z,8.50
2023-02-11T20:09:29.068Z,58.17
2023-02-11T20:11:55.661Z,12.52
2023-02-11T20:14:22.296Z,9.75
2023-02-11T20:16:50.085Z,9.25
2023-02-11T20:19:18.091Z,8.38
2023-02-11T20:21:46.793Z,8.60
2023-02-11T20:24:13.860Z,9.35
2023-02-11T20:26:42.335Z,9.30
2023-02-11T20:29:09.028Z,9.35
2023-02-11T20:31:35.773Z,9.80
2023-02-11T20:34:02.503Z,9.43
2023-02-11T20:36:31.789Z,8.82
2023-02-11T20:38:58.476Z,8.32
2023-02-11T20:41:25.147Z,8.43
2023-02-11T20:43:52.278Z,8.13
2023-02-11T20:46:19.119Z,9.13
2023-02-11T20:48:45.808Z,8.30
2023-02-11T20:51:12.374Z,8.20
2023-02-11T20:53:39.010Z,9.70
2023-02-11T20:56:07.607Z,8.55
2023-02-11T20:58:34.367Z,9.85
2023-02-11T21:01:00.993Z,11.80
2023-02-11T21:03:27.653Z,9.13
2023-02-11T21:05:56.766Z,10.00
2023-02-11T21:08:23.450Z,9.15
2023-02-11T21:10:50.021Z,8.45
2023-02-11T21:13:16.641Z,10.07
2023-02-11T21:15:45.434Z,9.50
2023-02-11T21:18:12.102Z,8.97
2023-02-11T21:20:38.836Z,10.15
2023-02-11T21:23:05.507Z,8.85
2023-02-11T21:25:34.329Z,10.23
2023-02-11T21:28:00.957Z,9.23
2023-02-11T21:30:27.561Z,11.57
2023-02-11T21:32:54.157Z,10.70
2023-02-11T21:35:21.941Z,12.50
2023-02-11T21:37:48.526Z,12.52
2023-02-11T21:40:15.257Z,12.35
2023-02-11T21:42:41.866Z,12.20
2023-02-11T21:45:09.733Z,12.50
2023-02-11T21:47:36.446Z,11.57
2023-02-11T21:50:03.079Z,11.63
2023-02-11T21:52:29.698Z,12.90
2023-02-11T21:54:56.415Z,13.48
2023-02-11T21:57:23.270Z,16.65
2023-02-11T21:59:49.908Z,14.48
2023-02-11T22:02:16.511Z,13.98
2023-02-11T22:04:45.334Z,13.95
2023-02-11T22:07:12.657Z,12.82
2023-02-11T22:09:39.325Z,13.80
2023-02-11T22:12:06.018Z,12.57
2023-02-11T22:14:32.634Z,15.18
2023-02-11T22:16:59.311Z,13.32
2023-02-11T22:19:26.302Z,13.98
2023-02-11T22:21:52.964Z,14.18
2023-02-11T22:24:19.555Z,15.27
2023-02-11T22:27:05.252Z,13.70
2023-02-11T22:29:31.826Z,13.68
2023-02-11T22:31:58.483Z,14.93
2023-02-11T22:34:25.262Z,13.18
2023-02-11T22:36:51.816Z,13.15
2023-02-11T22:39:18.542Z,11.82
2023-02-11T22:41:45.153Z,14.05
2023-02-11T22:44:11.881Z,14.43
2023-02-11T22:46:39.544Z,18.58
2023-02-11T22:49:07.096Z,16.80
2023-02-11T22:51:33.678Z,15.02
2023-02-11T22:54:00.373Z,15.48
2023-02-11T22:56:26.999Z,13.98
2023-02-11T22:58:53.702Z,12.43
2023-02-11T23:01:20.526Z,13.80
2023-02-11T23:03:47.172Z,12.93
2023-02-11T23:06:14.786Z,13.15
2023-02-11T23:08:42.875Z,13.43
2023-02-11T23:11:09.763Z,12.30
2023-02-11T23:13:36.424Z,12.45
2023-02-11T23:16:03.040Z,13.48
2023-02-11T23:18:29.674Z,13.27
2023-02-11T23:20:56.276Z,11.63
2023-02-11T23:23:22.878Z,11.65
2023-02-11T23:25:49.520Z,12.05
2023-02-11T23:28:16.170Z,13.07
2023-02-11T23:30:42.877Z,12.18
2023-02-11T23:33:09.583Z,11.65
2023-02-11T23:35:36.396Z,12.70
2023-02-11T23:38:03.009Z,13.07
2023-02-11T23:40:29.600Z,13.43
2023-02-11T23:42:56.223Z,14.10
2023-02-11T23:45:22.862Z,14.90
2023-02-11T23:47:49.507Z,13.57
2023-02-11T23:50:16.071Z,13.88
2023-02-11T23:52:42.732Z,15.77
2023-02-11T23:55:09.320Z,15.32
2023-02-11T23:57:36.000Z,14.13
